Time;durP1;ratioP1;P1;durP2;ratioP2;P2;SDS_P1;SDS_P2;PMS_P1;PMS_P2;Temp;Humidity;BMP_temperature;BMP_pressure;BME280_temperature;BME280_humidity;BME280_pressure;Samples;Min_cycle;Max_cycle;Signal;HPM_P1;HPM_P2
2024/02/24 00:05:38;;;;;;;0.80;0.80;;;15.60;1.00;;;;;;2615136;54;20129;-60
2024/02/24 00:14:49;;;;;;;0.70;0.70;;;15.60;1.00;;;;;;2614501;54;20936;-54
2024/02/24 00:20:36;;;;;;;0.80;0.80;;;15.60;1.00;;;;;;2614934;54;20160;-54
2024/02/24 00:26:24;;;;;;;0.70;0.70;;;15.60;1.00;;;;;;2614749;54;20154;-56
2024/02/24 00:32:12;;;;;;;0.80;0.80;;;15.60;1.00;;;;;;2614252;54;20131;-55
2024/02/24 00:38:00;;;;;;;0.80;0.80;;;15.60;1.00;;;;;;2615524;54;20118;-53
2024/02/24 00:43:47;;;;;;;0.70;0.60;;;15.60;1.00;;;;;;2614838;54;20169;-55
2024/02/24 00:49:35;;;;;;;0.73;0.73;;;15.50;1.00;;;;;;2615965;39;20818;-54
2024/02/24 00:55:23;;;;;;;0.73;0.73;;;15.50;1.00;;;;;;2615399;54;20189;-56
2024/02/24 01:01:11;;;;;;;0.80;0.80;;;15.50;1.00;;;;;;2615075;54;20445;-51
2024/02/24 01:07:00;;;;;;;0.80;0.80;;;15.60;1.00;;;;;;2614615;54;20136;-56
2024/02/24 01:10:19;;;;;;;0.70;0.67;;;15.60;1.00;;;;;;2615505;54;20451;-56
2024/02/24 01:12:44;;;;;;;0.80;0.80;;;15.50;1.00;;;;;;2615511;54;20401;-55
2024/02/24 01:18:32;;;;;;;1.03;1.03;;;15.50;1.00;;;;;;2615321;54;20150;-53
2024/02/24 01:24:20;;;;;;;0.80;0.80;;;15.60;1.00;;;;;;2615308;54;20131;-56
2024/02/24 01:30:08;;;;;;;0.70;0.70;;;15.50;1.00;;;;;;2614952;54;20141;-56
2024/02/24 01:35:56;;;;;;;0.73;0.70;;;15.60;1.00;;;;;;2614947;54;20380;-56
2024/02/24 01:41:44;;;;;;;0.70;0.70;;;15.50;1.00;;;;;;2615452;54;20394;-57
2024/02/24 01:47:31;;;;;;;0.80;0.80;;;15.50;1.00;;;;;;2614561;54;20170;-59
2024/02/24 01:53:21;;;;;;;0.80;0.80;;;15.60;1.00;;;;;;2614818;54;20126;-59
2024/02/24 01:59:09;;;;;;;0.70;0.70;;;15.50;1.00;;;;;;2615414;54;20364;-59
2024/02/24 02:04:57;;;;;;;0.80;0.80;;;15.60;1.00;;;;;;2614923;39;20837;-58
2024/02/24 02:14:48;;;;;;;0.90;0.90;;;15.50;1.00;;;;;;2614721;54;20973;-56
2024/02/24 02:20:35;;;;;;;0.80;0.80;;;15.50;1.00;;;;;;2615607;39;20894;-60
2024/02/24 02:26:23;;;;;;;0.70;0.70;;;15.50;1.00;;;;;;2615744;39;20529;-58
2024/02/24 02:32:11;;;;;;;0.80;0.80;;;15.60;1.00;;;;;;2615160;39;20452;-59
2024/02/24 02:37:59;;;;;;;0.80;0.80;;;15.60;1.00;;;;;;2615522;54;20135;-58
2024/02/24 02:43:47;;;;;;;0.70;0.70;;;15.50;1.00;;;;;;2614736;54;20138;-59
2024/02/24 02:49:34;;;;;;;0.70;0.70;;;15.50;1.00;;;;;;2614842;54;20129;-59
2024/02/24 02:55:21;;;;;;;0.80;0.80;;;15.50;1.00;;;;;;2615066;54;20144;-58
2024/02/24 03:01:09;;;;;;;0.90;0.90;;;15.50;1.00;;;;;;2615034;54;20219;-54
2024/02/24 03:06:57;;;;;;;0.90;0.90;;;15.50;1.00;;;;;;2615188;54;20170;-54
2024/02/24 03:10:19;;;;;;;0.90;0.90;;;15.50;1.00;;;;;;2614963;54;20400;-57
2024/02/24 03:12:44;;;;;;;0.80;0.80;;;15.50;1.00;;;;;;2614892;54;20703;-55
2024/02/24 03:18:32;;;;;;;0.77;0.77;;;15.50;1.00;;;;;;2614163;54;20133;-56
2024/02/24 03:24:19;;;;;;;0.80;0.80;;;15.50;1.00;;;;;;2614772;54;20125;-54
2024/02/24 03:30:08;;;;;;;0.90;0.90;;;15.50;1.00;;;;;;2615266;54;20157;-55
2024/02/24 03:35:56;;;;;;;0.70;0.70;;;15.50;1.00;;;;;;2614154;54;20490;-56
2024/02/24 03:41:43;;;;;;;0.80;0.80;;;15.50;1.00;;;;;;2613831;54;20126;-55
2024/02/24 03:47:31;;;;;;;0.80;0.80;;;15.50;1.00;;;;;;2614818;54;20131;-54
2024/02/24 03:53:18;;;;;;;0.80;0.80;;;15.50;1.00;;;;;;2614644;39;20212;-57
2024/02/24 03:59:06;;;;;;;0.80;0.80;;;15.50;1.00;;;;;;2614900;54;20133;-56
2024/02/24 04:04:53;;;;;;;0.80;0.80;;;15.50;1.00;;;;;;2614845;54;20146;-55
2024/02/24 04:14:47;;;;;;;0.90;0.90;;;15.50;1.00;;;;;;2614567;54;20365;-54
2024/02/24 04:20:35;;;;;;;0.90;0.90;;;15.50;1.00;;;;;;2614911;39;20657;-55
2024/02/24 04:26:22;;;;;;;0.80;0.80;;;15.50;1.00;;;;;;2614768;54;20165;-56
2024/02/24 04:32:10;;;;;;;0.70;0.67;;;15.50;1.00;;;;;;2614809;54;20157;-58
2024/02/24 04:37:58;;;;;;;0.90;0.90;;;15.50;1.00;;;;;;2615110;39;20682;-57
2024/02/24 04:43:46;;;;;;;0.70;0.57;;;15.50;1.00;;;;;;2614483;54;20146;-57
2024/02/24 04:49:33;;;;;;;0.70;0.70;;;15.50;1.00;;;;;;2614489;54;20204;-58
2024/02/24 04:55:21;;;;;;;0.80;0.80;;;15.50;1.00;;;;;;2614379;54;20126;-56
2024/02/24 05:01:09;;;;;;;0.90;0.90;;;15.50;1.00;;;;;;2615114;54;20161;-55
2024/02/24 05:06:57;;;;;;;0.80;0.80;;;15.50;1.00;;;;;;2614504;54;20118;-57
2024/02/24 05:16:08;;;;;;;0.70;0.70;;;15.50;1.00;;;;;;2614745;54;20409;-58
2024/02/24 05:21:56;;;;;;;0.80;0.80;;;15.50;1.00;;;;;;2615248;54;20487;-56
2024/02/24 05:27:43;;;;;;;0.80;0.80;;;15.50;1.00;;;;;;2614780;46;20881;-55
2024/02/24 05:33:31;;;;;;;0.83;0.83;;;15.50;1.00;;;;;;2615477;54;20225;-55
2024/02/24 05:39:19;;;;;;;0.80;0.80;;;15.50;1.00;;;;;;2615317;54;20125;-56
2024/02/24 05:45:07;;;;;;;0.70;0.70;;;15.50;1.00;;;;;;2615066;54;20133;-53
2024/02/24 05:50:55;;;;;;;0.80;0.80;;;15.50;1.00;;;;;;2615172;54;20999;-56
2024/02/24 05:53:58;;;;;;;0.90;0.90;;;15.50;1.00;;;;;;2614685;54;20396;-56
2024/02/24 05:56:24;;;;;;;0.80;0.80;;;15.50;1.00;;;;;;2614741;54;20172;-56
2024/02/24 06:02:12;;;;;;;0.80;0.80;;;15.50;1.00;;;;;;2614849;54;20134;-56
2024/02/24 06:07:59;;;;;;;0.83;0.83;;;15.50;1.00;;;;;;2615026;54;20150;-55
2024/02/24 06:13:47;;;;;;;0.90;0.90;;;15.50;1.00;;;;;;2615057;54;20202;-55
2024/02/24 06:19:34;;;;;;;0.73;0.73;;;15.50;1.00;;;;;;2615162;54;20117;-55
2024/02/24 06:25:23;;;;;;;0.90;0.90;;;15.50;1.00;;;;;;2614642;54;20130;-56
2024/02/24 06:31:13;;;;;;;0.87;0.87;;;15.50;1.00;;;;;;2614481;54;20429;-56
2024/02/24 06:37:01;;;;;;;0.97;0.97;;;15.50;1.00;;;;;;2614773;54;20421;-54
2024/02/24 06:42:48;;;;;;;0.80;0.80;;;15.50;1.00;;;;;;2614402;54;20145;-56
2024/02/24 06:48:36;;;;;;;0.93;0.93;;;15.50;1.00;;;;;;2615684;39;20540;-55
2024/02/24 06:54:24;;;;;;;0.90;0.90;;;15.50;1.00;;;;;;2614582;54;20131;-55
2024/02/24 07:00:12;;;;;;;0.80;0.80;;;15.50;1.00;;;;;;2614826;54;20137;-55
2024/02/24 07:06:00;;;;;;;0.80;0.80;;;15.40;1.00;;;;;;2615469;39;21311;-55
2024/02/24 07:16:03;;;;;;;0.90;0.90;;;15.50;1.00;;;;;;2615998;31;20900;-55
2024/02/24 07:21:51;;;;;;;0.73;0.70;;;15.50;1.00;;;;;;2614781;54;20407;-58
2024/02/24 07:27:38;;;;;;;0.80;0.80;;;15.50;1.00;;;;;;2615153;54;20130;-55
2024/02/24 07:33:26;;;;;;;0.70;0.67;;;15.50;1.00;;;;;;2614507;54;20147;-55
2024/02/24 07:39:13;;;;;;;0.70;0.60;;;15.50;1.00;;;;;;2614733;54;20149;-51
2024/02/24 07:45:01;;;;;;;0.70;0.70;;;15.50;1.00;;;;;;2614065;54;20137;-53
2024/02/24 07:50:49;;;;;;;0.80;0.70;;;15.50;1.00;;;;;;2614175;54;20133;-53
2024/02/24 07:56:37;;;;;;;0.70;0.70;;;15.50;1.00;;;;;;2615052;54;20138;-54
2024/02/24 08:02:24;;;;;;;0.70;0.60;;;15.50;1.00;;;;;;2614780;54;20446;-55
2024/02/24 08:08:11;;;;;;;0.70;0.70;;;15.50;1.00;;;;;;2615050;54;20138;-53
2024/02/24 08:11:39;;;;;;;0.70;0.70;;;15.50;1.00;;;;;;2614928;54;20419;-56
2024/02/24 08:14:09;;;;;;;0.70;0.60;;;15.50;1.00;;;;;;2614930;47;20150;-56
2024/02/24 08:19:56;;;;;;;0.70;0.60;;;15.50;1.00;;;;;;2615078;39;20839;-55
2024/02/24 08:25:44;;;;;;;0.70;0.60;;;15.50;1.00;;;;;;2615136;54;20150;-55
2024/02/24 08:31:34;;;;;;;0.80;0.80;;;15.50;1.00;;;;;;2614457;54;20134;-54
2024/02/24 08:37:21;;;;;;;0.70;0.70;;;15.50;1.00;;;;;;2613891;54;20391;-53
2024/02/24 08:43:09;;;;;;;0.80;0.80;;;15.50;1.00;;;;;;2613103;54;20692;-55
2024/02/24 08:48:58;;;;;;;0.70;0.70;;;15.50;1.00;;;;;;2614290;54;20134;-53
2024/02/24 08:54:46;;;;;;;0.70;0.70;;;15.50;1.00;;;;;;2615383;54;20436;-55
2024/02/24 09:00:33;;;;;;;0.70;0.60;;;15.50;1.00;;;;;;2614976;54;20158;-51
2024/02/24 09:06:21;;;;;;;0.80;0.80;;;15.50;1.00;;;;;;2613856;54;20214;-54
2024/02/24 09:16:02;;;;;;;0.80;0.80;;;15.50;1.00;;;;;;2615615;39;20745;-53
2024/02/24 09:21:49;;;;;;;0.80;0.80;;;15.50;1.00;;;;;;2615029;54;20446;-53
2024/02/24 09:27:37;;;;;;;0.70;0.70;;;15.50;1.00;;;;;;2615923;54;20162;-54
2024/02/24 09:33:25;;;;;;;0.70;0.70;;;15.50;1.00;;;;;;2615253;54;20659;-54
2024/02/24 09:39:14;;;;;;;0.80;0.80;;;15.50;1.00;;;;;;2614947;54;20158;-54
2024/02/24 09:45:04;;;;;;;0.70;0.70;;;15.50;1.00;;;;;;2615660;54;20920;-53
2024/02/24 09:50:52;;;;;;;0.70;0.70;;;15.50;1.00;;;;;;2615346;54;20902;-52
2024/02/24 09:56:42;;;;;;;0.70;0.70;;;15.50;1.00;;;;;;2614078;54;20405;-54
2024/02/24 10:02:30;;;;;;;0.70;0.70;;;15.60;1.00;;;;;;2614673;39;20760;-54
2024/02/24 10:08:18;;;;;;;0.70;0.70;;;15.60;1.00;;;;;;2616291;39;20772;-55
2024/02/24 10:11:34;;;;;;;0.67;0.60;;;15.60;1.00;;;;;;2614739;54;20411;-55
2024/02/24 10:13:59;;;;;;;0.70;0.70;;;15.60;1.00;;;;;;2614431;54;20432;-51
2024/02/24 10:19:47;;;;;;;0.80;0.80;;;15.60;1.00;;;;;;2614955;54;20142;-53
2024/02/24 10:25:35;;;;;;;0.70;0.70;;;15.80;1.00;;;;;;2615292;54;20139;-55
2024/02/24 10:31:26;;;;;;;0.70;0.70;;;16.00;1.00;;;;;;2615360;54;20127;-53
2024/02/24 10:37:16;;;;;;;0.70;0.70;;;16.20;1.00;;;;;;2614178;54;20427;-57
2024/02/24 10:43:05;;;;;;;0.70;0.60;;;16.30;1.00;;;;;;2614946;54;20420;-55
2024/02/24 10:48:52;;;;;;;0.70;0.70;;;16.30;1.00;;;;;;2614816;54;20436;-56
2024/02/24 10:54:42;;;;;;;0.70;0.70;;;16.20;1.00;;;;;;2614225;54;20114;-55
2024/02/24 11:00:31;;;;;;;0.70;0.70;;;16.10;1.00;;;;;;2614859;54;20368;-55
2024/02/24 11:06:42;;;;;;;0.73;0.73;;;16.00;1.00;;;;;;2614337;54;20523;-56
2024/02/24 11:16:41;;;;;;;0.80;0.80;;;16.00;1.00;;;;;;2613907;54;20426;-56
2024/02/24 11:22:30;;;;;;;0.93;0.93;;;16.10;1.00;;;;;;2612758;54;20487;-56
2024/02/24 11:28:24;;;;;;;0.70;0.70;;;16.20;1.00;;;;;;2613683;39;20835;-56
2024/02/24 11:34:11;;;;;;;0.70;0.70;;;16.20;1.00;;;;;;2613403;54;20461;-56
2024/02/24 11:40:00;;;;;;;0.70;0.70;;;16.20;1.00;;;;;;2612971;54;20705;-54
2024/02/24 11:45:52;;;;;;;0.73;0.73;;;16.20;1.00;;;;;;2613541;54;20395;-55
2024/02/24 11:51:40;;;;;;;0.70;0.63;;;16.30;1.00;;;;;;2613236;54;21001;-54
2024/02/24 11:57:27;;;;;;;0.70;0.60;;;16.30;1.00;;;;;;2615353;39;20559;-56
2024/02/24 12:03:16;;;;;;;0.70;0.70;;;16.30;1.00;;;;;;2614446;54;20174;-55
2024/02/24 12:09:04;;;;;;;0.70;0.70;;;16.30;1.00;;;;;;2614813;54;20496;-54
2024/02/24 12:11:31;;;;;;;0.70;0.60;;;16.40;1.00;;;;;;2614805;54;20420;-56
2024/02/24 12:13:57;;;;;;;0.70;0.70;;;16.40;1.00;;;;;;2613879;54;20162;-54
2024/02/24 12:19:45;;;;;;;0.70;0.70;;;16.30;1.00;;;;;;2615012;54;20134;-55
2024/02/24 12:25:34;;;;;;;0.70;0.70;;;16.20;1.00;;;;;;2614958;54;20379;-55
2024/02/24 12:31:23;;;;;;;0.70;0.70;;;16.20;1.00;;;;;;2614052;54;20405;-56
2024/02/24 12:37:10;;;;;;;0.70;0.70;;;16.10;1.00;;;;;;2614282;54;20387;-55
2024/02/24 12:42:59;;;;;;;0.70;0.70;;;16.30;1.00;;;;;;2613537;54;20178;-56
2024/02/24 12:48:47;;;;;;;0.70;0.60;;;16.30;1.00;;;;;;2614511;54;20433;-56
2024/02/24 12:54:34;;;;;;;0.80;0.80;;;16.20;1.00;;;;;;2613910;54;20164;-55
2024/02/24 13:00:22;;;;;;;0.70;0.60;;;16.20;1.00;;;;;;2614446;54;20192;-55
2024/02/24 13:06:10;;;;;;;0.80;0.80;;;16.20;1.00;;;;;;2613684;54;20131;-55
2024/02/24 13:16:06;;;;;;;0.70;0.70;;;16.40;1.00;;;;;;2614889;39;20773;-56
2024/02/24 13:21:54;;;;;;;0.70;0.70;;;16.40;1.00;;;;;;2614290;54;20395;-56
2024/02/24 13:27:44;;;;;;;0.70;0.70;;;16.30;1.00;;;;;;2614793;54;20130;-57
2024/02/24 13:33:31;;;;;;;0.80;0.80;;;16.20;1.00;;;;;;2614641;54;20528;-57
2024/02/24 13:39:19;;;;;;;0.80;0.80;;;16.20;1.00;;;;;;2613976;54;20729;-54
2024/02/24 13:45:07;;;;;;;0.70;0.70;;;16.30;1.00;;;;;;2616205;39;20554;-56
2024/02/24 13:50:54;;;;;;;0.70;0.70;;;16.30;1.00;;;;;;2615381;54;20149;-56
2024/02/24 13:56:42;;;;;;;0.80;0.77;;;16.20;1.00;;;;;;2614925;54;20158;-57
2024/02/24 14:02:30;;;;;;;0.70;0.60;;;16.20;1.00;;;;;;2615103;54;20224;-57
2024/02/24 14:08:18;;;;;;;0.80;0.70;;;16.20;1.00;;;;;;2615003;54;20430;-56
2024/02/24 14:11:34;;;;;;;0.70;0.70;;;16.20;1.00;;;;;;2615523;39;20843;-58
2024/02/24 14:13:59;;;;;;;0.80;0.80;;;16.20;1.00;;;;;;2614613;47;20183;-57
2024/02/24 14:19:47;;;;;;;0.70;0.70;;;16.10;1.00;;;;;;2614002;54;21337;-56
2024/02/24 14:25:35;;;;;;;0.70;0.70;;;16.10;1.00;;;;;;2614727;54;20154;-57
2024/02/24 14:31:23;;;;;;;0.70;0.70;;;16.00;1.00;;;;;;2614539;54;20925;-56
2024/02/24 14:37:11;;;;;;;0.70;0.70;;;16.00;1.00;;;;;;2615417;39;20519;-55
2024/02/24 14:43:00;;;;;;;0.70;0.70;;;16.00;1.00;;;;;;2614356;54;20138;-58
2024/02/24 14:48:48;;;;;;;0.70;0.70;;;15.90;1.00;;;;;;2614936;54;20393;-57
2024/02/24 14:54:35;;;;;;;0.70;0.70;;;15.90;1.00;;;;;;2615284;54;20384;-57
2024/02/24 15:00:25;;;;;;;0.80;0.80;;;16.00;1.00;;;;;;2614801;54;20158;-55
2024/02/24 15:06:16;;;;;;;0.70;0.70;;;16.00;1.00;;;;;;2614510;54;20418;-55
2024/02/24 15:16:09;;;;;;;0.70;0.70;;;15.90;1.00;;;;;;2615405;54;20422;-55
2024/02/24 15:21:57;;;;;;;0.80;0.80;;;15.90;1.00;;;;;;2614206;54;20391;-53
2024/02/24 15:27:44;;;;;;;0.80;0.80;;;15.90;1.00;;;;;;2615036;54;20668;-56
2024/02/24 15:33:32;;;;;;;0.80;0.80;;;15.90;1.00;;;;;;2614675;54;20135;-52
2024/02/24 15:39:20;;;;;;;0.80;0.80;;;15.90;1.00;;;;;;2615099;54;20115;-56
2024/02/24 15:45:08;;;;;;;0.80;0.80;;;15.80;1.00;;;;;;2614668;54;20131;-56
2024/02/24 15:50:55;;;;;;;0.70;0.70;;;15.80;1.00;;;;;;2614678;54;20383;-53
2024/02/24 15:56:43;;;;;;;0.70;0.70;;;15.80;1.00;;;;;;2614612;54;20221;-57
2024/02/24 16:02:31;;;;;;;0.70;0.67;;;15.80;1.00;;;;;;2612419;54;20388;-56
2024/02/24 16:08:19;;;;;;;0.80;0.80;;;15.80;1.00;;;;;;2615271;39;20636;-56
2024/02/24 16:11:33;;;;;;;0.70;0.70;;;15.80;1.00;;;;;;2614107;54;20407;-55
2024/02/24 16:13:59;;;;;;;0.77;0.70;;;15.80;1.00;;;;;;2614833;54;21632;-57
2024/02/24 16:19:48;;;;;;;0.80;0.70;;;15.80;1.00;;;;;;2614095;39;20838;-55
2024/02/24 16:25:36;;;;;;;0.70;0.70;;;15.70;1.00;;;;;;2614648;54;20387;-56
2024/02/24 16:31:24;;;;;;;0.80;0.80;;;15.70;1.00;;;;;;2614058;54;20130;-56
2024/02/24 16:37:11;;;;;;;0.70;0.70;;;15.70;1.00;;;;;;2614426;54;20129;-56
2024/02/24 16:42:59;;;;;;;0.70;0.70;;;15.70;1.00;;;;;;2614478;54;20130;-55
2024/02/24 16:48:49;;;;;;;0.70;0.70;;;15.70;1.00;;;;;;2614195;54;20667;-57
2024/02/24 16:54:37;;;;;;;0.80;0.80;;;15.60;1.00;;;;;;2613959;54;20387;-57
2024/02/24 17:00:25;;;;;;;0.77;0.77;;;15.60;1.00;;;;;;2614745;54;20645;-56
2024/02/24 17:06:12;;;;;;;0.80;0.80;;;15.60;1.00;;;;;;2614236;39;20631;-55
2024/02/24 17:16:04;;;;;;;0.70;0.70;;;15.60;1.00;;;;;;2615663;54;20390;-55
2024/02/24 17:21:52;;;;;;;0.77;0.77;;;15.60;1.00;;;;;;2614796;54;20421;-53
2024/02/24 17:27:39;;;;;;;0.80;0.80;;;15.60;1.00;;;;;;2615711;39;20643;-54
2024/02/24 17:33:28;;;;;;;0.80;0.80;;;15.60;1.00;;;;;;2615516;54;20144;-56
2024/02/24 17:39:16;;;;;;;0.70;0.70;;;15.50;1.00;;;;;;2614379;39;20872;-55
2024/02/24 17:45:04;;;;;;;0.80;0.80;;;15.50;1.00;;;;;;2615485;54;20237;-54
2024/02/24 17:50:52;;;;;;;0.80;0.80;;;15.60;1.00;;;;;;2615142;54;20421;-54
2024/02/24 17:56:40;;;;;;;2.23;2.13;;;15.50;1.00;;;;;;2614832;54;20139;-56
2024/02/24 18:02:27;;;;;;;1.40;1.30;;;15.60;1.00;;;;;;2615125;54;20526;-52
2024/02/24 18:08:15;;;;;;;0.70;0.70;;;15.50;1.00;;;;;;2615193;54;20145;-55
2024/02/24 18:11:31;;;;;;;0.80;0.80;;;15.50;1.00;;;;;;2615115;54;20458;-58
2024/02/24 18:13:57;;;;;;;0.70;0.70;;;15.50;1.00;;;;;;2615120;54;20186;-55
2024/02/24 18:19:44;;;;;;;0.80;0.80;;;15.50;1.00;;;;;;2615185;54;20123;-58
2024/02/24 18:25:32;;;;;;;0.80;0.80;;;15.50;1.00;;;;;;2614862;54;20133;-58
2024/02/24 18:31:19;;;;;;;0.87;0.87;;;15.50;1.00;;;;;;2613484;54;20161;-59
2024/02/24 18:37:07;;;;;;;0.80;0.80;;;15.50;1.00;;;;;;2615420;54;20654;-58
2024/02/24 18:42:55;;;;;;;0.90;0.90;;;15.50;1.00;;;;;;2614733;54;20133;-57
2024/02/24 18:48:42;;;;;;;0.90;0.90;;;15.50;1.00;;;;;;2614999;54;20149;-57
2024/02/24 18:54:30;;;;;;;0.80;0.80;;;15.50;1.00;;;;;;2615691;39;20533;-59
2024/02/24 19:00:19;;;;;;;0.80;0.80;;;15.50;1.00;;;;;;2614250;54;20137;-58
2024/02/24 19:06:08;;;;;;;0.70;0.70;;;15.50;1.00;;;;;;2615899;31;20912;-57
2024/02/24 19:16:02;;;;;;;0.93;0.93;;;15.50;1.00;;;;;;2614968;54;20402;-58
2024/02/24 19:21:50;;;;;;;0.90;0.90;;;15.50;1.00;;;;;;2615245;54;20420;-57
2024/02/24 19:27:38;;;;;;;0.83;0.83;;;15.50;1.00;;;;;;2615654;54;20238;-58
2024/02/24 19:33:26;;;;;;;1.00;1.00;;;15.50;1.00;;;;;;2614927;54;20127;-58
2024/02/24 19:39:13;;;;;;;0.80;0.80;;;15.50;1.00;;;;;;2615173;54;20627;-58
2024/02/24 19:45:01;;;;;;;0.80;0.80;;;15.50;1.00;;;;;;2614526;54;20257;-58
2024/02/24 19:50:49;;;;;;;0.80;0.80;;;15.50;1.00;;;;;;2614940;54;20130;-55
2024/02/24 19:56:36;;;;;;;0.90;0.90;;;15.40;1.00;;;;;;2615110;54;20129;-53
2024/02/24 20:02:24;;;;;;;0.90;0.90;;;15.50;1.00;;;;;;2614723;54;20137;-56
2024/02/24 20:08:12;;;;;;;0.83;0.83;;;15.50;1.00;;;;;;2614766;54;20130;-56
2024/02/24 20:17:41;;;;;;;0.80;0.80;;;15.40;1.00;;;;;;2614313;54;20414;-54
2024/02/24 20:23:29;;;;;;;0.90;0.90;;;15.40;1.00;;;;;;2613946;54;20967;-55
2024/02/24 20:29:17;;;;;;;0.90;0.90;;;15.40;1.00;;;;;;2614430;54;20138;-59
2024/02/24 20:35:05;;;;;;;0.80;0.80;;;15.40;1.00;;;;;;2614920;54;20138;-56
2024/02/24 20:40:53;;;;;;;0.80;0.80;;;15.40;1.00;;;;;;2614209;54;20436;-55
2024/02/24 20:46:44;;;;;;;0.90;0.90;;;15.40;1.00;;;;;;2614417;54;20707;-55
2024/02/24 20:52:32;;;;;;;0.90;0.90;;;15.40;1.00;;;;;;2615333;54;20356;-56
2024/02/24 20:58:20;;;;;;;0.80;0.80;;;15.40;1.00;;;;;;2615692;54;20145;-55
2024/02/24 21:04:08;;;;;;;0.90;0.90;;;15.40;1.00;;;;;;2615818;39;20221;-55
2024/02/24 21:09:56;;;;;;;0.90;0.90;;;15.40;1.00;;;;;;2615557;54;20394;-56
2024/02/24 21:15:44;;;;;;;0.90;0.90;;;15.40;1.00;;;;;;2615390;54;20383;-56
2024/02/24 21:21:32;;;;;;;0.80;0.80;;;15.40;1.00;;;;;;2614552;54;20377;-55
2024/02/24 21:27:20;;;;;;;0.80;0.80;;;15.40;1.00;;;;;;2614326;54;20160;-54
2024/02/24 21:33:09;;;;;;;0.80;0.80;;;15.40;1.00;;;;;;2615415;54;20655;-55
2024/02/24 21:38:57;;;;;;;0.80;0.80;;;15.40;1.00;;;;;;2615361;54;20964;-55
2024/02/24 21:44:44;;;;;;;0.80;0.80;;;15.40;1.00;;;;;;2615467;54;20429;-54
2024/02/24 21:50:32;;;;;;;0.90;0.90;;;15.40;1.00;;;;;;2615233;54;20126;-55
2024/02/24 21:56:22;;;;;;;0.80;0.80;;;15.40;1.00;;;;;;2614850;54;20703;-53
2024/02/24 22:02:10;;;;;;;0.80;0.80;;;15.40;1.00;;;;;;2614577;54;20389;-56
2024/02/24 22:07:58;;;;;;;0.80;0.80;;;15.40;1.00;;;;;;2614983;54;20143;-54
2024/02/24 22:13:46;;;;;;;0.80;0.73;;;15.40;1.00;;;;;;2614992;54;20208;-57
2024/02/24 22:19:36;;;;;;;0.80;0.80;;;15.30;1.00;;;;;;2615590;54;20405;-52
2024/02/24 22:25:24;;;;;;;0.80;0.80;;;15.30;1.00;;;;;;2614750;54;20403;-60
2024/02/24 22:31:12;;;;;;;0.87;0.87;;;15.40;1.00;;;;;;2615287;54;20150;-56
2024/02/24 22:37:00;;;;;;;0.80;0.80;;;15.40;1.00;;;;;;2615164;54;20134;-56
2024/02/24 22:42:47;;;;;;;0.80;0.80;;;15.30;1.00;;;;;;2615453;39;20534;-55
2024/02/24 22:48:35;;;;;;;0.80;0.80;;;15.40;1.00;;;;;;2614859;54;20160;-55
2024/02/24 22:54:23;;;;;;;0.80;0.80;;;15.30;1.00;;;;;;2614966;54;20115;-56
2024/02/24 23:00:13;;;;;;;0.70;0.70;;;15.40;1.00;;;;;;2615009;54;20146;-55
2024/02/24 23:06:00;;;;;;;0.80;0.80;;;15.30;1.00;;;;;;2615261;54;20421;-54
2024/02/24 23:25:31;;;;;;;0.80;0.80;;;15.30;1.00;;;;;;2613917;54;20427;-56
2024/02/24 23:31:19;;;;;;;0.90;0.90;;;15.30;1.00;;;;;;2613366;54;20396;-62
2024/02/24 23:37:06;;;;;;;0.80;0.70;;;15.30;1.00;;;;;;2613814;54;20148;-56
2024/02/24 23:42:53;;;;;;;0.90;0.90;;;15.30;1.00;;;;;;2612680;54;20233;-55
2024/02/24 23:48:41;;;;;;;0.80;0.80;;;15.40;1.00;;;;;;2613317;54;20129;-55
2024/02/24 23:55:07;;;;;;;0.80;0.80;;;15.30;1.00;;;;;;2614325;54;20407;-53
2024/02/24 23:57:47;;;;;;;4.80;4.40;;;15.40;1.00;;;;;;2614044;54;20980;-55
